sensor_id;sensor_type;location;lat;lon;timestamp;P1;P2;P0
20371;PMS7003;63562;30.520;-97.766;2022-10-26T00:00:25;0.00;0.00;0.00
20371;PMS7003;63562;30.520;-97.766;2022-10-26T00:02:56;0.00;0.00;0.00
20371;PMS7003;63562;30.520;-97.766;2022-10-26T00:05:26;0.00;0.00;0.00
20371;PMS7003;63562;30.520;-97.766;2022-10-26T00:08:01;0.25;0.25;0.25
20371;PMS7003;63562;30.520;-97.766;2022-10-26T00:10:34;1.00;1.00;0.25
20371;PMS7003;63562;30.520;-97.766;2022-10-26T00:13:08;1.00;1.00;1.00
20371;PMS7003;63562;30.520;-97.766;2022-10-26T00:15:41;0.00;0.00;0.00
20371;PMS7003;63562;30.520;-97.766;2022-10-26T00:18:10;0.00;0.00;0.00
20371;PMS7003;63562;30.520;-97.766;2022-10-26T00:20:42;0.00;0.00;0.00
20371;PMS7003;63562;30.520;-97.766;2022-10-26T00:23:11;0.00;0.00;0.00
20371;PMS7003;63562;30.520;-97.766;2022-10-26T00:25:44;0.00;0.00;0.00
20371;PMS7003;63562;30.520;-97.766;2022-10-26T00:28:22;0.75;0.00;0.00
20371;PMS7003;63562;30.520;-97.766;2022-10-26T00:30:58;0.00;0.00;0.00
20371;PMS7003;63562;30.520;-97.766;2022-10-26T00:33:34;0.00;0.00;0.00
20371;PMS7003;63562;30.520;-97.766;2022-10-26T00:36:05;0.00;0.00;0.00
20371;PMS7003;63562;30.520;-97.766;2022-10-26T00:38:41;0.00;0.00;0.00
20371;PMS7003;63562;30.520;-97.766;2022-10-26T00:41:16;0.00;0.00;0.00
20371;PMS7003;63562;30.520;-97.766;2022-10-26T00:43:52;0.00;0.00;0.00
20371;PMS7003;63562;30.520;-97.766;2022-10-26T00:46:26;0.00;0.00;0.00
20371;PMS7003;63562;30.520;-97.766;2022-10-26T00:49:02;0.50;0.50;0.00
20371;PMS7003;63562;30.520;-97.766;2022-10-26T00:51:41;0.00;0.00;0.00
20371;PMS7003;63562;30.520;-97.766;2022-10-26T00:54:17;1.00;0.00;0.00
20371;PMS7003;63562;30.520;-97.766;2022-10-26T00:56:51;0.00;0.00;0.00
20371;PMS7003;63562;30.520;-97.766;2022-10-26T00:59:22;0.00;0.00;0.00
20371;PMS7003;63562;30.520;-97.766;2022-10-26T01:01:53;1.00;1.00;1.00
20371;PMS7003;63562;30.520;-97.766;2022-10-26T01:04:25;0.25;0.25;0.00
20371;PMS7003;63562;30.520;-97.766;2022-10-26T01:06:56;1.00;1.00;1.00
20371;PMS7003;63562;30.520;-97.766;2022-10-26T01:09:27;0.00;0.00;0.00
20371;PMS7003;63562;30.520;-97.766;2022-10-26T01:11:59;1.00;1.00;0.00
20371;PMS7003;63562;30.520;-97.766;2022-10-26T01:14:30;1.00;1.00;0.75
20371;PMS7003;63562;30.520;-97.766;2022-10-26T01:22:53;1.00;1.00;1.00
20371;PMS7003;63562;30.520;-97.766;2022-10-26T01:28:39;1.00;1.00;1.00
20371;PMS7003;63562;30.520;-97.766;2022-10-26T01:31:40;1.00;1.00;1.00
20371;PMS7003;63562;30.520;-97.766;2022-10-26T01:34:24;1.00;1.00;1.00
20371;PMS7003;63562;30.520;-97.766;2022-10-26T01:37:10;2.00;2.00;2.00
20371;PMS7003;63562;30.520;-97.766;2022-10-26T01:39:52;2.00;2.00;2.00
20371;PMS7003;63562;30.520;-97.766;2022-10-26T01:42:29;2.67;2.67;2.00
20371;PMS7003;63562;30.520;-97.766;2022-10-26T01:45:05;2.00;2.00;2.00
20371;PMS7003;63562;30.520;-97.766;2022-10-26T01:47:37;1.00;1.00;1.00
20371;PMS7003;63562;30.520;-97.766;2022-10-26T01:50:11;2.33;2.33;1.33
20371;PMS7003;63562;30.520;-97.766;2022-10-26T01:52:46;1.33;1.33;1.00
20371;PMS7003;63562;30.520;-97.766;2022-10-26T01:58:28;2.00;2.00;1.00
20371;PMS7003;63562;30.520;-97.766;2022-10-26T02:04:32;0.33;0.33;0.00
20371;PMS7003;63562;30.520;-97.766;2022-10-26T02:07:44;0.00;0.00;0.00
20371;PMS7003;63562;30.520;-97.766;2022-10-26T02:15:52;0.00;0.00;0.00
20371;PMS7003;63562;30.520;-97.766;2022-10-26T02:21:43;2.00;2.00;1.00
20371;PMS7003;63562;30.520;-97.766;2022-10-26T02:24:21;2.00;2.00;2.00
20371;PMS7003;63562;30.520;-97.766;2022-10-26T02:26:54;2.00;2.00;2.00
20371;PMS7003;63562;30.520;-97.766;2022-10-26T02:29:30;2.00;2.00;2.00
20371;PMS7003;63562;30.520;-97.766;2022-10-26T02:32:01;1.33;1.33;1.00
20371;PMS7003;63562;30.520;-97.766;2022-10-26T02:34:35;1.67;1.67;1.33
20371;PMS7003;63562;30.520;-97.766;2022-10-26T02:37:10;2.33;1.67;1.33
20371;PMS7003;63562;30.520;-97.766;2022-10-26T02:39:48;2.00;2.00;2.00
20371;PMS7003;63562;30.520;-97.766;2022-10-26T02:42:21;2.50;2.50;2.00
20371;PMS7003;63562;30.520;-97.766;2022-10-26T02:44:54;2.00;2.00;1.67
20371;PMS7003;63562;30.520;-97.766;2022-10-26T02:47:29;2.00;2.00;2.00
20371;PMS7003;63562;30.520;-97.766;2022-10-26T02:49:58;1.00;1.00;1.00
20371;PMS7003;63562;30.520;-97.766;2022-10-26T02:52:41;1.00;1.00;1.00
20371;PMS7003;63562;30.520;-97.766;2022-10-26T02:55:37;2.00;2.00;2.00
20371;PMS7003;63562;30.520;-97.766;2022-10-26T02:58:19;2.00;2.00;2.00
20371;PMS7003;63562;30.520;-97.766;2022-10-26T03:00:53;3.00;3.00;2.00
20371;PMS7003;63562;30.520;-97.766;2022-10-26T03:03:28;3.00;3.00;2.25
20371;PMS7003;63562;30.520;-97.766;2022-10-26T03:05:59;2.67;2.67;2.33
20371;PMS7003;63562;30.520;-97.766;2022-10-26T03:08:30;3.00;3.00;2.67
20371;PMS7003;63562;30.520;-97.766;2022-10-26T03:11:02;2.00;2.00;1.33
20371;PMS7003;63562;30.520;-97.766;2022-10-26T03:13:33;2.00;2.00;2.00
20371;PMS7003;63562;30.520;-97.766;2022-10-26T03:16:08;2.75;2.75;2.00
20371;PMS7003;63562;30.520;-97.766;2022-10-26T03:18:39;1.33;1.33;1.00
20371;PMS7003;63562;30.520;-97.766;2022-10-26T03:21:12;3.50;3.50;2.75
20371;PMS7003;63562;30.520;-97.766;2022-10-26T03:23:47;2.00;2.00;2.00
20371;PMS7003;63562;30.520;-97.766;2022-10-26T03:26:20;3.50;3.50;2.50
20371;PMS7003;63562;30.520;-97.766;2022-10-26T03:28:51;2.75;2.75;2.50
20371;PMS7003;63562;30.520;-97.766;2022-10-26T03:31:24;3.00;3.00;2.00
20371;PMS7003;63562;30.520;-97.766;2022-10-26T03:33:56;4.00;2.33;2.00
20371;PMS7003;63562;30.520;-97.766;2022-10-26T03:36:28;3.00;3.00;2.00
20371;PMS7003;63562;30.520;-97.766;2022-10-26T03:39:00;3.50;2.00;2.00
20371;PMS7003;63562;30.520;-97.766;2022-10-26T03:41:32;4.00;4.00;3.00
20371;PMS7003;63562;30.520;-97.766;2022-10-26T03:44:04;1.00;1.00;1.00
20371;PMS7003;63562;30.520;-97.766;2022-10-26T03:46:36;2.50;2.50;2.00
20371;PMS7003;63562;30.520;-97.766;2022-10-26T03:49:08;2.00;2.00;2.00
20371;PMS7003;63562;30.520;-97.766;2022-10-26T03:51:42;2.00;2.00;2.00
20371;PMS7003;63562;30.520;-97.766;2022-10-26T03:54:13;2.75;2.75;2.00
20371;PMS7003;63562;30.520;-97.766;2022-10-26T03:56:49;1.00;1.00;1.00
20371;PMS7003;63562;30.520;-97.766;2022-10-26T03:59:21;3.00;3.00;2.50
20371;PMS7003;63562;30.520;-97.766;2022-10-26T04:01:53;2.50;2.50;2.00
20371;PMS7003;63562;30.520;-97.766;2022-10-26T04:04:24;2.75;2.75;2.00
20371;PMS7003;63562;30.520;-97.766;2022-10-26T04:06:59;2.00;2.00;2.00
20371;PMS7003;63562;30.520;-97.766;2022-10-26T04:09:37;2.50;2.50;2.25
20371;PMS7003;63562;30.520;-97.766;2022-10-26T04:12:10;2.50;2.50;2.00
20371;PMS7003;63562;30.520;-97.766;2022-10-26T04:14:43;3.50;3.50;3.00
20371;PMS7003;63562;30.520;-97.766;2022-10-26T04:17:16;3.00;3.00;3.00
20371;PMS7003;63562;30.520;-97.766;2022-10-26T04:19:46;3.00;3.00;2.75
20371;PMS7003;63562;30.520;-97.766;2022-10-26T04:22:19;3.00;3.00;2.00
20371;PMS7003;63562;30.520;-97.766;2022-10-26T04:24:50;4.75;3.00;2.75
20371;PMS7003;63562;30.520;-97.766;2022-10-26T04:27:23;3.50;3.00;2.50
20371;PMS7003;63562;30.520;-97.766;2022-10-26T04:29:58;3.00;2.00;2.00
20371;PMS7003;63562;30.520;-97.766;2022-10-26T04:32:28;2.00;2.00;2.00
20371;PMS7003;63562;30.520;-97.766;2022-10-26T04:34:58;1.75;1.75;1.75
20371;PMS7003;63562;30.520;-97.766;2022-10-26T04:37:28;3.00;3.00;3.00
20371;PMS7003;63562;30.520;-97.766;2022-10-26T04:40:00;3.25;3.25;3.00
20371;PMS7003;63562;30.520;-97.766;2022-10-26T04:42:41;3.00;3.00;2.75
20371;PMS7003;63562;30.520;-97.766;2022-10-26T04:45:14;3.50;3.50;2.50
20371;PMS7003;63562;30.520;-97.766;2022-10-26T04:47:44;2.50;2.50;2.00
20371;PMS7003;63562;30.520;-97.766;2022-10-26T04:50:15;2.00;2.00;2.00
20371;PMS7003;63562;30.520;-97.766;2022-10-26T04:52:48;2.50;2.50;2.00
20371;PMS7003;63562;30.520;-97.766;2022-10-26T04:55:21;1.75;1.75;1.25
20371;PMS7003;63562;30.520;-97.766;2022-10-26T04:57:51;2.00;2.00;1.75
20371;PMS7003;63562;30.520;-97.766;2022-10-26T05:00:28;2.00;2.00;2.00
20371;PMS7003;63562;30.520;-97.766;2022-10-26T05:03:04;2.50;2.50;2.50
20371;PMS7003;63562;30.520;-97.766;2022-10-26T05:05:37;3.75;3.75;3.00
20371;PMS7003;63562;30.520;-97.766;2022-10-26T05:08:07;2.50;2.50;1.75
20371;PMS7003;63562;30.520;-97.766;2022-10-26T05:10:40;3.00;3.00;2.75
20371;PMS7003;63562;30.520;-97.766;2022-10-26T05:13:11;4.50;3.00;3.00
20371;PMS7003;63562;30.520;-97.766;2022-10-26T05:15:44;2.25;2.25;2.00
20371;PMS7003;63562;30.520;-97.766;2022-10-26T05:18:20;1.00;1.00;0.25
20371;PMS7003;63562;30.520;-97.766;2022-10-26T05:20:51;0.75;0.75;0.50
20371;PMS7003;63562;30.520;-97.766;2022-10-26T05:23:22;3.25;3.25;2.50
20371;PMS7003;63562;30.520;-97.766;2022-10-26T05:25:55;1.00;1.00;1.00
20371;PMS7003;63562;30.520;-97.766;2022-10-26T05:28:26;2.75;2.75;2.75
20371;PMS7003;63562;30.520;-97.766;2022-10-26T05:30:57;4.00;2.75;2.50
20371;PMS7003;63562;30.520;-97.766;2022-10-26T05:33:31;2.50;2.50;2.25
20371;PMS7003;63562;30.520;-97.766;2022-10-26T05:36:01;4.25;3.50;2.75
20371;PMS7003;63562;30.520;-97.766;2022-10-26T05:38:32;1.75;1.75;1.75
20371;PMS7003;63562;30.520;-97.766;2022-10-26T05:41:05;4.25;2.75;2.75
20371;PMS7003;63562;30.520;-97.766;2022-10-26T05:43:35;3.75;3.75;3.25
20371;PMS7003;63562;30.520;-97.766;2022-10-26T05:46:06;5.25;5.25;3.75
20371;PMS7003;63562;30.520;-97.766;2022-10-26T05:48:36;7.00;7.00;5.00
20371;PMS7003;63562;30.520;-97.766;2022-10-26T05:51:12;4.75;4.75;3.50
20371;PMS7003;63562;30.520;-97.766;2022-10-26T05:53:42;3.75;3.75;3.00
20371;PMS7003;63562;30.520;-97.766;2022-10-26T05:56:18;3.00;3.00;3.00
20371;PMS7003;63562;30.520;-97.766;2022-10-26T05:58:49;3.50;3.50;3.50
20371;PMS7003;63562;30.520;-97.766;2022-10-26T06:07:06;4.50;4.50;2.50
20371;PMS7003;63562;30.520;-97.766;2022-10-26T06:09:56;3.00;3.00;3.00
20371;PMS7003;63562;30.520;-97.766;2022-10-26T06:12:26;4.75;4.75;3.75
20371;PMS7003;63562;30.520;-97.766;2022-10-26T06:14:58;2.50;2.50;2.00
20371;PMS7003;63562;30.520;-97.766;2022-10-26T06:17:35;2.50;2.50;2.00
20371;PMS7003;63562;30.520;-97.766;2022-10-26T06:20:17;2.00;2.00;2.00
20371;PMS7003;63562;30.520;-97.766;2022-10-26T06:30:09;2.00;2.00;1.25
20371;PMS7003;63562;30.520;-97.766;2022-10-26T06:32:43;2.50;2.50;2.00
20371;PMS7003;63562;30.520;-97.766;2022-10-26T06:38:15;3.75;3.75;3.00
20371;PMS7003;63562;30.520;-97.766;2022-10-26T06:40:50;2.50;2.50;2.25
20371;PMS7003;63562;30.520;-97.766;2022-10-26T06:43:24;2.75;2.75;2.25
20371;PMS7003;63562;30.520;-97.766;2022-10-26T06:45:59;3.00;3.00;3.00
20371;PMS7003;63562;30.520;-97.766;2022-10-26T06:48:39;3.25;3.25;1.50
20371;PMS7003;63562;30.520;-97.766;2022-10-26T06:51:28;3.00;3.00;3.00
20371;PMS7003;63562;30.520;-97.766;2022-10-26T06:54:46;2.00;2.00;2.00
20371;PMS7003;63562;30.520;-97.766;2022-10-26T06:57:17;4.00;4.00;3.00
20371;PMS7003;63562;30.520;-97.766;2022-10-26T06:59:52;3.00;2.00;1.75
20371;PMS7003;63562;30.520;-97.766;2022-10-26T07:02:23;2.25;2.25;2.00
20371;PMS7003;63562;30.520;-97.766;2022-10-26T07:04:55;2.00;2.00;2.00
20371;PMS7003;63562;30.520;-97.766;2022-10-26T07:07:33;3.00;3.00;2.75
20371;PMS7003;63562;30.520;-97.766;2022-10-26T07:10:06;2.75;2.75;2.00
20371;PMS7003;63562;30.520;-97.766;2022-10-26T07:12:41;2.00;2.00;2.00
20371;PMS7003;63562;30.520;-97.766;2022-10-26T07:15:11;4.50;4.50;3.00
20371;PMS7003;63562;30.520;-97.766;2022-10-26T07:17:44;2.00;2.00;1.75
20371;PMS7003;63562;30.520;-97.766;2022-10-26T07:20:17;2.00;2.00;1.75
20371;PMS7003;63562;30.520;-97.766;2022-10-26T07:22:51;2.75;2.75;2.50
20371;PMS7003;63562;30.520;-97.766;2022-10-26T07:25:24;2.00;2.00;2.00
20371;PMS7003;63562;30.520;-97.766;2022-10-26T07:27:57;2.00;2.00;1.25
20371;PMS7003;63562;30.520;-97.766;2022-10-26T07:30:28;2.00;2.00;1.00
20371;PMS7003;63562;30.520;-97.766;2022-10-26T07:35:35;1.00;1.00;1.00
20371;PMS7003;63562;30.520;-97.766;2022-10-26T07:38:12;1.75;1.75;1.00
20371;PMS7003;63562;30.520;-97.766;2022-10-26T07:40:43;0.75;0.75;0.75
20371;PMS7003;63562;30.520;-97.766;2022-10-26T07:43:14;3.25;2.00;1.25
20371;PMS7003;63562;30.520;-97.766;2022-10-26T07:45:47;2.00;2.00;1.00
20371;PMS7003;63562;30.520;-97.766;2022-10-26T07:48:19;3.50;3.50;3.50
20371;PMS7003;63562;30.520;-97.766;2022-10-26T07:50:51;3.50;3.50;3.25
20371;PMS7003;63562;30.520;-97.766;2022-10-26T07:53:23;4.00;4.00;4.00
20371;PMS7003;63562;30.520;-97.766;2022-10-26T07:55:55;4.25;4.25;4.25
20371;PMS7003;63562;30.520;-97.766;2022-10-26T07:58:28;3.00;3.00;3.00
20371;PMS7003;63562;30.520;-97.766;2022-10-26T08:01:04;4.00;4.00;3.75
20371;PMS7003;63562;30.520;-97.766;2022-10-26T08:03:40;7.25;5.25;5.25
20371;PMS7003;63562;30.520;-97.766;2022-10-26T08:06:10;7.25;7.25;6.50
20371;PMS7003;63562;30.520;-97.766;2022-10-26T08:08:44;6.75;6.75;6.25
20371;PMS7003;63562;30.520;-97.766;2022-10-26T08:11:20;5.25;5.25;5.25
20371;PMS7003;63562;30.520;-97.766;2022-10-26T08:13:53;6.75;6.75;6.50
20371;PMS7003;63562;30.520;-97.766;2022-10-26T08:16:24;8.00;8.00;7.50
20371;PMS7003;63562;30.520;-97.766;2022-10-26T08:18:56;9.25;9.00;9.00
20371;PMS7003;63562;30.520;-97.766;2022-10-26T08:21:27;10.75;10.75;10.75
20371;PMS7003;63562;30.520;-97.766;2022-10-26T08:24:08;14.25;12.75;12.25
20371;PMS7003;63562;30.520;-97.766;2022-10-26T08:26:37;12.50;12.50;12.50
20371;PMS7003;63562;30.520;-97.766;2022-10-26T08:29:09;13.75;13.75;13.50
20371;PMS7003;63562;30.520;-97.766;2022-10-26T08:31:40;14.00;14.00;14.00
20371;PMS7003;63562;30.520;-97.766;2022-10-26T08:34:10;14.75;14.75;14.50
20371;PMS7003;63562;30.520;-97.766;2022-10-26T08:36:40;14.00;14.00;14.00
20371;PMS7003;63562;30.520;-97.766;2022-10-26T08:39:11;13.75;13.75;13.50
20371;PMS7003;63562;30.520;-97.766;2022-10-26T08:41:46;13.00;13.00;13.00
20371;PMS7003;63562;30.520;-97.766;2022-10-26T08:44:30;8.50;8.50;8.25
20371;PMS7003;63562;30.520;-97.766;2022-10-26T08:50:29;2.75;2.75;2.50
20371;PMS7003;63562;30.520;-97.766;2022-10-26T08:52:39;2.50;2.50;2.00
20371;PMS7003;63562;30.520;-97.766;2022-10-26T08:55:20;2.00;2.00;2.00
20371;PMS7003;63562;30.520;-97.766;2022-10-26T08:57:55;2.00;2.00;1.00
20371;PMS7003;63562;30.520;-97.766;2022-10-26T09:00:30;2.25;2.25;2.00
20371;PMS7003;63562;30.520;-97.766;2022-10-26T09:03:07;3.00;3.00;2.00
20371;PMS7003;63562;30.520;-97.766;2022-10-26T09:16:53;2.50;2.50;2.00
20371;PMS7003;63562;30.520;-97.766;2022-10-26T09:22:39;2.00;2.00;2.00
20371;PMS7003;63562;30.520;-97.766;2022-10-26T09:25:18;2.00;2.00;1.75
20371;PMS7003;63562;30.520;-97.766;2022-10-26T09:27:56;2.50;2.50;2.00
20371;PMS7003;63562;30.520;-97.766;2022-10-26T09:30:31;2.00;2.00;2.00
20371;PMS7003;63562;30.520;-97.766;2022-10-26T09:33:04;2.00;2.00;1.00
20371;PMS7003;63562;30.520;-97.766;2022-10-26T09:44:15;2.00;2.00;2.00
20371;PMS7003;63562;30.520;-97.766;2022-10-26T09:47:04;2.25;2.25;2.00
20371;PMS7003;63562;30.520;-97.766;2022-10-26T09:49:55;2.00;2.00;2.00
20371;PMS7003;63562;30.520;-97.766;2022-10-26T09:52:31;2.25;2.25;2.25
20371;PMS7003;63562;30.520;-97.766;2022-10-26T09:55:02;2.00;2.00;1.75
20371;PMS7003;63562;30.520;-97.766;2022-10-26T09:57:34;2.00;2.00;2.00
20371;PMS7003;63562;30.520;-97.766;2022-10-26T10:00:05;2.00;2.00;1.00
20371;PMS7003;63562;30.520;-97.766;2022-10-26T10:02:55;2.75;2.75;2.00
20371;PMS7003;63562;30.520;-97.766;2022-10-26T10:08:24;1.00;1.00;1.00
20371;PMS7003;63562;30.520;-97.766;2022-10-26T10:10:57;2.25;2.00;1.75
20371;PMS7003;63562;30.520;-97.766;2022-10-26T10:13:40;2.50;2.50;2.00
20371;PMS7003;63562;30.520;-97.766;2022-10-26T10:16:22;2.00;2.00;2.00
20371;PMS7003;63562;30.520;-97.766;2022-10-26T10:18:57;2.25;2.25;2.00
20371;PMS7003;63562;30.520;-97.766;2022-10-26T10:21:37;2.00;2.00;2.00
20371;PMS7003;63562;30.520;-97.766;2022-10-26T10:27:20;2.00;2.00;2.00
20371;PMS7003;63562;30.520;-97.766;2022-10-26T10:29:53;2.00;2.00;2.00
20371;PMS7003;63562;30.520;-97.766;2022-10-26T10:32:31;2.00;2.00;2.00
20371;PMS7003;63562;30.520;-97.766;2022-10-26T10:35:29;3.25;3.25;3.00
20371;PMS7003;63562;30.520;-97.766;2022-10-26T10:38:00;2.25;1.00;1.00
20371;PMS7003;63562;30.520;-97.766;2022-10-26T10:40:32;4.00;2.25;2.00
20371;PMS7003;63562;30.520;-97.766;2022-10-26T10:43:10;2.00;2.00;2.00
20371;PMS7003;63562;30.520;-97.766;2022-10-26T10:45:46;3.00;2.50;2.00
20371;PMS7003;63562;30.520;-97.766;2022-10-26T10:48:26;1.00;1.00;1.00
20371;PMS7003;63562;30.520;-97.766;2022-10-26T10:51:06;1.75;1.75;1.00
20371;PMS7003;63562;30.520;-97.766;2022-10-26T10:53:51;1.75;1.75;1.00
20371;PMS7003;63562;30.520;-97.766;2022-10-26T10:56:32;2.00;2.00;1.50
20371;PMS7003;63562;30.520;-97.766;2022-10-26T11:05:23;2.00;2.00;1.50
20371;PMS7003;63562;30.520;-97.766;2022-10-26T11:10:50;2.00;1.00;1.00
20371;PMS7003;63562;30.520;-97.766;2022-10-26T11:16:50;1.25;1.25;1.00
20371;PMS7003;63562;30.520;-97.766;2022-10-26T11:19:36;2.00;2.00;1.00
20371;PMS7003;63562;30.520;-97.766;2022-10-26T11:22:16;2.75;2.75;2.00
20371;PMS7003;63562;30.520;-97.766;2022-10-26T11:24:56;2.00;2.00;1.75
20371;PMS7003;63562;30.520;-97.766;2022-10-26T11:28:16;2.00;2.00;2.00
20371;PMS7003;63562;30.520;-97.766;2022-10-26T11:31:20;2.00;2.00;2.00
20371;PMS7003;63562;30.520;-97.766;2022-10-26T11:37:45;2.00;2.00;2.00
20371;PMS7003;63562;30.520;-97.766;2022-10-26T11:43:34;2.75;2.00;2.00
20371;PMS7003;63562;30.520;-97.766;2022-10-26T11:46:28;2.00;2.00;2.00
20371;PMS7003;63562;30.520;-97.766;2022-10-26T11:49:14;2.50;2.00;2.00
20371;PMS7003;63562;30.520;-97.766;2022-10-26T11:52:13;2.00;2.00;2.00
20371;PMS7003;63562;30.520;-97.766;2022-10-26T11:57:40;2.00;2.00;1.00
20371;PMS7003;63562;30.520;-97.766;2022-10-26T12:03:11;2.00;2.00;2.00
20371;PMS7003;63562;30.520;-97.766;2022-10-26T12:05:47;2.75;2.75;2.00
20371;PMS7003;63562;30.520;-97.766;2022-10-26T12:13:55;2.50;2.50;2.00
20371;PMS7003;63562;30.520;-97.766;2022-10-26T12:21:54;2.00;2.00;1.00
20371;PMS7003;63562;30.520;-97.766;2022-10-26T12:24:28;2.00;2.00;2.00
20371;PMS7003;63562;30.520;-97.766;2022-10-26T12:27:05;1.75;1.75;1.25
20371;PMS7003;63562;30.520;-97.766;2022-10-26T12:35:37;1.00;1.00;1.00
20371;PMS7003;63562;30.520;-97.766;2022-10-26T12:43:38;3.75;2.00;2.00
20371;PMS7003;63562;30.520;-97.766;2022-10-26T12:48:50;1.00;1.00;1.00
20371;PMS7003;63562;30.520;-97.766;2022-10-26T12:56:55;2.50;2.50;2.50
20371;PMS7003;63562;30.520;-97.766;2022-10-26T12:59:48;1.75;1.75;1.00
20371;PMS7003;63562;30.520;-97.766;2022-10-26T13:05:06;2.00;2.00;2.00
20371;PMS7003;63562;30.520;-97.766;2022-10-26T13:08:11;2.00;2.00;2.00
20371;PMS7003;63562;30.520;-97.766;2022-10-26T13:11:01;2.00;2.00;1.25
20371;PMS7003;63562;30.520;-97.766;2022-10-26T13:13:33;2.00;2.00;1.50
20371;PMS7003;63562;30.520;-97.766;2022-10-26T13:16:10;2.00;2.00;1.00
20371;PMS7003;63562;30.520;-97.766;2022-10-26T13:18:41;2.00;2.00;2.00
20371;PMS7003;63562;30.520;-97.766;2022-10-26T13:21:16;2.00;2.00;1.00
20371;PMS7003;63562;30.520;-97.766;2022-10-26T13:23:54;1.75;1.75;1.00
20371;PMS7003;63562;30.520;-97.766;2022-10-26T13:26:41;1.50;1.50;1.25
20371;PMS7003;63562;30.520;-97.766;2022-10-26T13:32:34;1.00;1.00;1.00
20371;PMS7003;63562;30.520;-97.766;2022-10-26T13:35:12;3.00;3.00;2.00
20371;PMS7003;63562;30.520;-97.766;2022-10-26T13:37:45;3.25;2.00;1.25
20371;PMS7003;63562;30.520;-97.766;2022-10-26T13:40:24;1.75;1.75;1.00
20371;PMS7003;63562;30.520;-97.766;2022-10-26T13:42:57;1.25;1.25;1.00
20371;PMS7003;63562;30.520;-97.766;2022-10-26T13:45:54;1.25;1.25;1.00
20371;PMS7003;63562;30.520;-97.766;2022-10-26T13:48:37;1.25;1.25;1.00
20371;PMS7003;63562;30.520;-97.766;2022-10-26T13:51:21;2.00;2.00;2.00
20371;PMS7003;63562;30.520;-97.766;2022-10-26T13:53:56;1.00;1.00;1.00
20371;PMS7003;63562;30.520;-97.766;2022-10-26T13:56:44;1.25;1.25;1.00
20371;PMS7003;63562;30.520;-97.766;2022-10-26T13:59:32;1.25;1.25;0.75
20371;PMS7003;63562;30.520;-97.766;2022-10-26T14:02:23;1.00;1.00;1.00
20371;PMS7003;63562;30.520;-97.766;2022-10-26T14:04:59;4.25;2.50;2.25
20371;PMS7003;63562;30.520;-97.766;2022-10-26T14:07:43;2.00;2.00;2.00
20371;PMS7003;63562;30.520;-97.766;2022-10-26T14:10:35;2.00;2.00;2.00
20371;PMS7003;63562;30.520;-97.766;2022-10-26T14:13:09;2.00;2.00;2.00
20371;PMS7003;63562;30.520;-97.766;2022-10-26T14:15:44;2.00;2.00;2.00
20371;PMS7003;63562;30.520;-97.766;2022-10-26T14:18:20;2.00;2.00;2.00
20371;PMS7003;63562;30.520;-97.766;2022-10-26T14:20:55;2.00;2.00;1.25
20371;PMS7003;63562;30.520;-97.766;2022-10-26T14:23:44;1.00;1.00;1.00
20371;PMS7003;63562;30.520;-97.766;2022-10-26T14:28:59;2.00;2.00;1.75
20371;PMS7003;63562;30.520;-97.766;2022-10-26T14:31:31;2.00;2.00;2.00
20371;PMS7003;63562;30.520;-97.766;2022-10-26T14:34:05;2.50;1.25;0.75
20371;PMS7003;63562;30.520;-97.766;2022-10-26T14:36:50;2.00;1.00;1.00
20371;PMS7003;63562;30.520;-97.766;2022-10-26T14:48:30;1.00;1.00;0.50
20371;PMS7003;63562;30.520;-97.766;2022-10-26T14:51:37;1.00;1.00;1.00
20371;PMS7003;63562;30.520;-97.766;2022-10-26T14:54:02;2.00;2.00;1.00
20371;PMS7003;63562;30.520;-97.766;2022-10-26T14:59:16;7.75;7.75;7.75
20371;PMS7003;63562;30.520;-97.766;2022-10-26T15:04:28;15.00;13.25;12.50
20371;PMS7003;63562;30.520;-97.766;2022-10-26T15:09:48;11.00;11.00;11.00
20371;PMS7003;63562;30.520;-97.766;2022-10-26T15:12:33;5.00;5.00;5.00
20371;PMS7003;63562;30.520;-97.766;2022-10-26T15:17:47;2.00;2.00;1.50
20371;PMS7003;63562;30.520;-97.766;2022-10-26T15:20:24;1.50;1.50;1.50
20371;PMS7003;63562;30.520;-97.766;2022-10-26T15:22:57;0.75;0.75;0.00
20371;PMS7003;63562;30.520;-97.766;2022-10-26T15:25:34;0.00;0.00;0.00
20371;PMS7003;63562;30.520;-97.766;2022-10-26T15:28:09;0.50;0.50;0.50
20371;PMS7003;63562;30.520;-97.766;2022-10-26T15:36:22;0.00;0.00;0.00
20371;PMS7003;63562;30.520;-97.766;2022-10-26T15:38:54;1.50;0.00;0.00
20371;PMS7003;63562;30.520;-97.766;2022-10-26T15:41:37;0.50;0.50;0.50
20371;PMS7003;63562;30.520;-97.766;2022-10-26T15:44:16;0.50;0.50;0.25
20371;PMS7003;63562;30.520;-97.766;2022-10-26T15:46:50;0.00;0.00;0.00
20371;PMS7003;63562;30.520;-97.766;2022-10-26T15:49:20;1.25;0.25;0.25
20371;PMS7003;63562;30.520;-97.766;2022-10-26T15:51:53;0.00;0.00;0.00
20371;PMS7003;63562;30.520;-97.766;2022-10-26T15:54:25;1.00;1.00;0.50
20371;PMS7003;63562;30.520;-97.766;2022-10-26T15:56:56;0.00;0.00;0.00
20371;PMS7003;63562;30.520;-97.766;2022-10-26T15:59:31;0.75;0.75;0.50
20371;PMS7003;63562;30.520;-97.766;2022-10-26T16:02:10;0.00;0.00;0.00
20371;PMS7003;63562;30.520;-97.766;2022-10-26T16:04:48;0.25;0.25;0.25
20371;PMS7003;63562;30.520;-97.766;2022-10-26T16:07:19;0.50;0.50;0.00
20371;PMS7003;63562;30.520;-97.766;2022-10-26T16:09:55;0.00;0.00;0.00
20371;PMS7003;63562;30.520;-97.766;2022-10-26T16:12:25;0.00;0.00;0.00
20371;PMS7003;63562;30.520;-97.766;2022-10-26T16:14:56;0.50;0.50;0.00
20371;PMS7003;63562;30.520;-97.766;2022-10-26T16:17:32;0.00;0.00;0.00
20371;PMS7003;63562;30.520;-97.766;2022-10-26T16:20:07;0.00;0.00;0.00
20371;PMS7003;63562;30.520;-97.766;2022-10-26T16:22:48;0.00;0.00;0.00
20371;PMS7003;63562;30.520;-97.766;2022-10-26T16:25:23;0.00;0.00;0.00
20371;PMS7003;63562;30.520;-97.766;2022-10-26T16:27:54;1.00;1.00;0.00
20371;PMS7003;63562;30.520;-97.766;2022-10-26T16:30:24;0.00;0.00;0.00
20371;PMS7003;63562;30.520;-97.766;2022-10-26T16:33:00;0.00;0.00;0.00
20371;PMS7003;63562;30.520;-97.766;2022-10-26T16:35:32;0.00;0.00;0.00
20371;PMS7003;63562;30.520;-97.766;2022-10-26T16:38:03;0.00;0.00;0.00
20371;PMS7003;63562;30.520;-97.766;2022-10-26T16:40:34;0.00;0.00;0.00
20371;PMS7003;63562;30.520;-97.766;2022-10-26T16:43:05;1.50;0.00;0.00
20371;PMS7003;63562;30.520;-97.766;2022-10-26T16:45:41;0.00;0.00;0.00
20371;PMS7003;63562;30.520;-97.766;2022-10-26T16:48:14;0.00;0.00;0.00
20371;PMS7003;63562;30.520;-97.766;2022-10-26T16:50:44;0.00;0.00;0.00
20371;PMS7003;63562;30.520;-97.766;2022-10-26T16:53:21;0.00;0.00;0.00
20371;PMS7003;63562;30.520;-97.766;2022-10-26T16:55:53;0.00;0.00;0.00
20371;PMS7003;63562;30.520;-97.766;2022-10-26T16:58:31;0.00;0.00;0.00
20371;PMS7003;63562;30.520;-97.766;2022-10-26T17:01:06;0.00;0.00;0.00
20371;PMS7003;63562;30.520;-97.766;2022-10-26T17:03:37;0.00;0.00;0.00
20371;PMS7003;63562;30.520;-97.766;2022-10-26T17:06:09;0.00;0.00;0.00
20371;PMS7003;63562;30.520;-97.766;2022-10-26T17:08:40;0.00;0.00;0.00
20371;PMS7003;63562;30.520;-97.766;2022-10-26T17:11:16;0.00;0.00;0.00
20371;PMS7003;63562;30.520;-97.766;2022-10-26T17:13:53;1.00;1.00;1.00
20371;PMS7003;63562;30.520;-97.766;2022-10-26T17:16:24;0.00;0.00;0.00
20371;PMS7003;63562;30.520;-97.766;2022-10-26T17:18:55;0.00;0.00;0.00
20371;PMS7003;63562;30.520;-97.766;2022-10-26T17:21:30;0.00;0.00;0.00
20371;PMS7003;63562;30.520;-97.766;2022-10-26T17:24:01;0.00;0.00;0.00
20371;PMS7003;63562;30.520;-97.766;2022-10-26T17:26:35;1.00;1.00;0.00
20371;PMS7003;63562;30.520;-97.766;2022-10-26T17:29:06;0.00;0.00;0.00